createdAt,value
2019-01-06T00:00:23.016Z,53.91
2019-01-06T00:01:23.004Z,53.72
2019-01-06T00:02:22.995Z,53.81
2019-01-06T00:03:22.988Z,53.81
2019-01-06T00:04:22.973Z,53.81
2019-01-06T00:05:22.964Z,53.72
2019-01-06T00:06:22.954Z,53.72
2019-01-06T00:07:22.942Z,53.72
2019-01-06T00:08:22.940Z,53.72
2019-01-06T00:09:22.923Z,53.81
2019-01-06T00:10:22.914Z,53.72
2019-01-06T00:11:22.900Z,53.91
2019-01-06T00:12:22.889Z,54.10
2019-01-06T00:13:22.884Z,53.72
2019-01-06T00:14:22.870Z,53.72
2019-01-06T00:15:22.864Z,53.91
2019-01-06T00:16:22.850Z,53.91
2019-01-06T00:17:22.839Z,54.00
2019-01-06T00:18:22.830Z,53.53
2019-01-06T00:19:22.820Z,53.81
2019-01-06T00:20:22.805Z,53.62
2019-01-06T00:21:22.796Z,53.72
2019-01-06T00:22:22.792Z,53.53
2019-01-06T00:23:22.778Z,53.62
2019-01-06T00:24:22.767Z,53.62
2019-01-06T00:25:22.756Z,53.43
2019-01-06T00:26:22.746Z,53.43
2019-01-06T00:27:22.743Z,53.53
2019-01-06T00:28:22.733Z,53.43
2019-01-06T00:29:22.715Z,53.43
2019-01-06T00:30:22.706Z,53.43
2019-01-06T00:31:22.696Z,53.43
2019-01-06T00:32:22.685Z,53.53
2019-01-06T00:33:22.680Z,53.43
2019-01-06T00:34:22.667Z,53.43
2019-01-06T00:35:22.654Z,53.43
2019-01-06T00:36:22.644Z,53.43
2019-01-06T00:37:22.632Z,53.23
2019-01-06T00:38:22.623Z,53.43
2019-01-06T00:39:22.609Z,53.43
2019-01-06T00:40:22.597Z,53.43
2019-01-06T00:41:22.592Z,53.43
2019-01-06T00:42:22.580Z,53.43
2019-01-06T00:43:22.596Z,53.72
2019-01-06T00:44:22.560Z,53.53
2019-01-06T00:45:22.549Z,53.43
2019-01-06T00:46:22.545Z,53.53
2019-01-06T00:47:22.529Z,53.53
2019-01-06T00:48:22.518Z,53.43
2019-01-06T00:49:22.506Z,53.43
2019-01-06T00:50:22.498Z,53.43
2019-01-06T00:51:22.488Z,53.43
2019-01-06T00:52:22.475Z,53.23
2019-01-06T00:53:22.470Z,53.33
2019-01-06T00:54:22.460Z,53.62
2019-01-06T00:55:22.450Z,53.53
2019-01-06T00:56:22.436Z,53.53
2019-01-06T00:57:22.426Z,53.43
2019-01-06T00:58:22.418Z,53.43
2019-01-06T00:59:22.400Z,53.72
2019-01-06T01:00:22.398Z,53.33
2019-01-06T01:01:22.385Z,53.53
2019-01-06T01:02:22.373Z,53.62
2019-01-06T01:03:22.364Z,53.53
2019-01-06T01:04:22.352Z,53.53
2019-01-06T01:05:22.354Z,53.53
2019-01-06T01:06:22.334Z,53.62
2019-01-06T01:07:22.324Z,53.59
2019-01-06T01:08:22.311Z,53.62
2019-01-06T01:09:22.302Z,53.53
2019-01-06T01:10:22.290Z,53.53
2019-01-06T01:11:22.281Z,53.72
2019-01-06T01:12:22.270Z,53.23
2019-01-06T01:13:22.258Z,53.62
2019-01-06T01:14:22.249Z,53.72
2019-01-06T01:15:22.241Z,53.72
2019-01-06T01:16:22.228Z,53.14
2019-01-06T01:17:22.214Z,53.72
2019-01-06T01:18:22.209Z,53.14
2019-01-06T01:19:22.203Z,53.14
2019-01-06T01:20:22.185Z,53.14
2019-01-06T01:21:22.174Z,53.23
2019-01-06T01:22:22.164Z,53.14
2019-01-06T01:23:22.155Z,53.14
2019-01-06T01:24:22.144Z,53.11
2019-01-06T01:25:22.134Z,53.21
2019-01-06T01:26:22.126Z,53.11
2019-01-06T01:27:22.112Z,53.33
2019-01-06T01:28:22.106Z,53.23
2019-01-06T01:29:22.093Z,53.14
2019-01-06T01:30:22.082Z,53.23
2019-01-06T01:31:22.079Z,53.14
2019-01-06T01:32:22.061Z,52.95
2019-01-06T01:33:22.052Z,53.05
2019-01-06T01:34:22.038Z,52.92
2019-01-06T01:35:22.026Z,53.02
2019-01-06T01:36:22.017Z,53.05
2019-01-06T01:37:22.010Z,53.21
2019-01-06T01:38:22.009Z,52.92
2019-01-06T01:39:21.989Z,53.11
2019-01-06T01:40:21.976Z,53.14
2019-01-06T01:41:21.969Z,52.75
2019-01-06T01:42:21.956Z,52.73
2019-01-06T01:43:21.944Z,52.75
2019-01-06T01:44:21.934Z,52.85
2019-01-06T01:45:21.925Z,52.83
2019-01-06T01:46:21.913Z,52.73
2019-01-06T01:47:21.907Z,52.83
2019-01-06T01:48:21.892Z,52.73
2019-01-06T01:49:21.881Z,52.85
2019-01-06T01:50:21.875Z,52.83
2019-01-06T01:51:21.864Z,52.75
2019-01-06T01:52:21.879Z,52.73
2019-01-06T01:53:21.870Z,52.85
2019-01-06T01:54:21.832Z,52.85
2019-01-06T01:55:21.820Z,52.75
2019-01-06T01:56:21.814Z,52.85
2019-01-06T01:57:21.797Z,52.56
2019-01-06T01:58:21.818Z,52.75
2019-01-06T01:59:21.778Z,52.83
2019-01-06T02:00:21.769Z,52.75
2019-01-06T02:01:21.759Z,52.95
2019-01-06T02:02:21.751Z,52.73
2019-01-06T02:03:21.737Z,52.83
2019-01-06T02:04:21.726Z,52.83
2019-01-06T02:05:21.750Z,52.75
2019-01-06T02:06:21.710Z,52.85
2019-01-06T02:07:21.698Z,52.95
2019-01-06T02:08:21.684Z,52.85
2019-01-06T02:09:21.677Z,52.54
2019-01-06T02:10:21.667Z,52.56
2019-01-06T02:11:21.654Z,52.66
2019-01-06T02:12:21.643Z,52.54
2019-01-06T02:13:21.632Z,52.73
2019-01-06T02:14:21.621Z,52.73
2019-01-06T02:15:21.618Z,52.75
2019-01-06T02:16:21.602Z,52.73
2019-01-06T02:17:21.592Z,52.83
2019-01-06T02:18:21.582Z,52.54
2019-01-06T02:19:21.571Z,52.75
2019-01-06T02:20:21.558Z,52.73
2019-01-06T02:21:21.549Z,52.83
2019-01-06T02:22:21.541Z,52.85
2019-01-06T02:23:21.521Z,52.75
2019-01-06T02:24:21.516Z,52.56
2019-01-06T02:25:21.507Z,52.92
2019-01-06T02:26:21.496Z,52.66
2019-01-06T02:27:21.486Z,52.63
2019-01-06T02:28:21.474Z,52.92
2019-01-06T02:29:21.464Z,52.75
2019-01-06T02:30:21.463Z,52.75
2019-01-06T02:31:21.446Z,52.73
2019-01-06T02:32:21.432Z,52.73
2019-01-06T02:33:21.429Z,52.92
2019-01-06T02:34:21.419Z,52.63
2019-01-06T02:35:21.404Z,52.63
2019-01-06T02:36:21.396Z,52.54
2019-01-06T02:37:21.381Z,52.92
2019-01-06T02:38:21.375Z,52.92
2019-01-06T02:39:21.370Z,52.92
2019-01-06T02:40:21.351Z,52.95
2019-01-06T02:41:21.340Z,52.95
2019-01-06T02:42:21.333Z,53.05
2019-01-06T02:43:21.323Z,53.02
2019-01-06T02:44:21.306Z,53.05
2019-01-06T02:45:21.301Z,53.05
2019-01-06T02:46:21.286Z,53.05
2019-01-06T02:47:21.275Z,52.83
2019-01-06T02:48:21.268Z,52.92
2019-01-06T02:49:21.260Z,52.83
2019-01-06T02:50:21.245Z,52.92
2019-01-06T02:51:21.235Z,52.92
2019-01-06T02:52:21.222Z,52.66
2019-01-06T02:53:21.212Z,52.63
2019-01-06T02:54:21.207Z,52.83
2019-01-06T02:55:21.200Z,52.83
2019-01-06T02:56:21.181Z,53.02
2019-01-06T02:57:21.175Z,52.83
2019-01-06T02:58:21.161Z,53.02
2019-01-06T02:59:21.151Z,52.95
2019-01-06T03:00:21.139Z,53.11
2019-01-06T03:01:21.128Z,53.02
2019-01-06T03:02:21.120Z,52.73
2019-01-06T03:03:21.112Z,52.54
2019-01-06T03:04:21.099Z,53.02
2019-01-06T03:05:21.087Z,53.02
2019-01-06T03:06:21.081Z,52.75
2019-01-06T03:07:21.073Z,52.54
2019-01-06T03:08:21.056Z,52.73
2019-01-06T03:09:21.046Z,52.63
2019-01-06T03:10:21.033Z,52.73
2019-01-06T03:11:21.028Z,52.73
2019-01-06T03:12:21.012Z,52.44
2019-01-06T03:13:21.002Z,52.63
2019-01-06T03:14:20.992Z,52.73
2019-01-06T03:15:20.982Z,52.73
2019-01-06T03:16:20.972Z,53.23
2019-01-06T03:17:20.964Z,53.11
2019-01-06T03:18:20.952Z,52.83
2019-01-06T03:19:20.942Z,52.63
2019-01-06T03:20:20.927Z,52.73
2019-01-06T03:21:20.920Z,52.63
2019-01-06T03:22:20.912Z,52.63
2019-01-06T03:23:20.899Z,52.63
2019-01-06T03:24:20.887Z,52.73
2019-01-06T03:25:20.877Z,52.73
2019-01-06T03:26:20.870Z,52.63
2019-01-06T03:27:20.858Z,52.73
2019-01-06T03:28:20.843Z,52.63
2019-01-06T03:29:20.836Z,52.63
2019-01-06T03:30:20.826Z,52.73
2019-01-06T03:31:20.816Z,52.34
2019-01-06T03:32:20.805Z,52.54
2019-01-06T03:33:20.794Z,52.34
2019-01-06T03:34:20.782Z,52.54
2019-01-06T03:35:20.775Z,52.54
2019-01-06T03:36:20.760Z,52.44
2019-01-06T03:37:20.753Z,52.44
2019-01-06T03:38:20.743Z,52.44
2019-01-06T03:39:20.730Z,52.25
2019-01-06T03:40:20.719Z,52.63
2019-01-06T03:41:20.709Z,52.25
2019-01-06T03:42:20.702Z,52.25
2019-01-06T03:43:20.699Z,52.34
2019-01-06T03:44:20.710Z,52.54
2019-01-06T03:45:20.668Z,52.25
2019-01-06T03:46:20.657Z,52.54
2019-01-06T03:47:20.643Z,52.25
2019-01-06T03:48:20.634Z,52.63
2019-01-06T03:49:20.633Z,52.25
2019-01-06T03:50:20.613Z,52.44
2019-01-06T03:51:20.606Z,52.54
2019-01-06T03:52:20.604Z,52.63
2019-01-06T03:53:20.582Z,52.54
2019-01-06T03:54:20.570Z,52.44
2019-01-06T03:55:20.563Z,52.44
2019-01-06T03:56:20.550Z,52.54
2019-01-06T03:57:20.539Z,52.44
2019-01-06T03:58:20.533Z,52.73
2019-01-06T03:59:20.518Z,52.73
2019-01-06T04:00:20.509Z,52.44
2019-01-06T04:01:20.499Z,52.63
2019-01-06T04:02:20.491Z,52.44
2019-01-06T04:03:20.483Z,52.44
2019-01-06T04:04:20.466Z,52.44
2019-01-06T04:05:20.457Z,52.44
2019-01-06T04:06:20.443Z,52.44
2019-01-06T04:07:20.435Z,52.25
2019-01-06T04:08:20.423Z,52.47
2019-01-06T04:09:20.413Z,52.56
2019-01-06T04:10:20.410Z,52.63
2019-01-06T04:11:20.407Z,52.63
2019-01-06T04:12:20.385Z,52.66
2019-01-06T04:13:20.377Z,52.66
2019-01-06T04:14:20.364Z,52.63
2019-01-06T04:15:20.351Z,52.56
2019-01-06T04:16:20.340Z,52.63
2019-01-06T04:17:20.342Z,52.56
2019-01-06T04:18:20.319Z,52.34
2019-01-06T04:19:20.309Z,52.25
2019-01-06T04:20:20.300Z,52.34
2019-01-06T04:21:20.287Z,52.25
2019-01-06T04:22:20.277Z,51.89
2019-01-06T04:23:20.271Z,52.08
2019-01-06T04:24:20.257Z,52.34
2019-01-06T04:25:20.243Z,51.89
2019-01-06T04:26:20.236Z,51.89
2019-01-06T04:27:20.226Z,51.89
2019-01-06T04:28:20.213Z,51.89
2019-01-06T04:29:20.205Z,52.27
2019-01-06T04:30:20.192Z,51.98
2019-01-06T04:31:20.183Z,52.08
2019-01-06T04:32:20.171Z,52.27
2019-01-06T04:33:20.166Z,52.18
2019-01-06T04:34:20.150Z,52.34
2019-01-06T04:35:20.139Z,51.96
2019-01-06T04:36:20.129Z,51.96
2019-01-06T04:37:20.119Z,52.15
2019-01-06T04:38:20.109Z,52.08
2019-01-06T04:39:20.099Z,52.44
2019-01-06T04:40:20.088Z,52.15
2019-01-06T04:41:20.079Z,52.47
2019-01-06T04:42:20.068Z,51.96
2019-01-06T04:43:20.054Z,52.25
2019-01-06T04:44:20.099Z,51.89
2019-01-06T04:45:20.040Z,51.96
2019-01-06T04:46:20.026Z,51.98
2019-01-06T04:47:20.014Z,51.89
2019-01-06T04:48:20.003Z,52.08
2019-01-06T04:49:19.994Z,52.06
2019-01-06T04:50:19.983Z,51.86
2019-01-06T04:51:19.972Z,51.96
2019-01-06T04:52:19.963Z,52.34
2019-01-06T04:53:19.951Z,52.37
2019-01-06T04:54:19.944Z,51.96
2019-01-06T04:55:19.930Z,52.37
2019-01-06T04:56:19.919Z,52.25
2019-01-06T04:57:19.909Z,52.15
2019-01-06T04:58:19.900Z,52.25
2019-01-06T04:59:19.891Z,52.15
2019-01-06T05:00:19.953Z,52.34
2019-01-06T05:01:19.867Z,52.18
2019-01-06T05:02:19.860Z,52.34
2019-01-06T05:03:19.848Z,52.06
2019-01-06T05:04:19.836Z,52.08
2019-01-06T05:05:19.826Z,52.18
2019-01-06T05:06:19.815Z,52.47
2019-01-06T05:07:19.805Z,52.18
2019-01-06T05:08:19.797Z,52.15
2019-01-06T05:09:19.782Z,52.27
2019-01-06T05:10:19.773Z,52.34
2019-01-06T05:11:19.767Z,52.25
2019-01-06T05:12:19.751Z,52.18
2019-01-06T05:13:19.746Z,52.15
2019-01-06T05:14:19.731Z,52.15
2019-01-06T05:15:19.721Z,51.89
2019-01-06T05:16:19.709Z,52.34
2019-01-06T05:17:19.700Z,52.18
2019-01-06T05:18:19.698Z,52.18
2019-01-06T05:19:19.681Z,52.15
2019-01-06T05:20:19.671Z,51.89
2019-01-06T05:21:19.657Z,51.98
2019-01-06T05:22:19.654Z,52.25
2019-01-06T05:23:19.637Z,52.06
2019-01-06T05:24:19.628Z,52.37
2019-01-06T05:25:19.617Z,51.86
2019-01-06T05:26:19.607Z,51.86
2019-01-06T05:27:19.595Z,52.06
2019-01-06T05:28:19.589Z,52.37
2019-01-06T05:29:19.575Z,52.25
2019-01-06T05:30:19.559Z,51.98
2019-01-06T05:31:19.568Z,52.08
2019-01-06T05:32:19.548Z,51.96
2019-01-06T05:33:19.534Z,52.25
2019-01-06T05:34:19.522Z,52.18
2019-01-06T05:35:19.512Z,52.34
2019-01-06T05:36:19.500Z,52.25
2019-01-06T05:37:19.491Z,51.96
2019-01-06T05:38:19.481Z,52.34
2019-01-06T05:39:19.466Z,51.96
2019-01-06T05:40:19.459Z,51.86
2019-01-06T05:41:19.452Z,52.27
2019-01-06T05:42:19.438Z,51.98
2019-01-06T05:43:19.429Z,52.06
2019-01-06T05:44:19.417Z,52.15
2019-01-06T05:45:19.408Z,52.08
2019-01-06T05:46:19.432Z,52.27
2019-01-06T05:47:19.390Z,51.96
2019-01-06T05:48:19.375Z,52.25
2019-01-06T05:49:19.370Z,51.96
2019-01-06T05:50:19.356Z,51.98
2019-01-06T05:51:19.344Z,51.96
2019-01-06T05:52:19.332Z,52.34
2019-01-06T05:53:19.323Z,52.37
2019-01-06T05:54:19.317Z,51.89
2019-01-06T05:55:19.306Z,52.25
2019-01-06T05:56:19.342Z,52.06
2019-01-06T05:57:19.282Z,52.25
2019-01-06T05:58:19.272Z,52.08
2019-01-06T05:59:19.257Z,52.37
2019-01-06T06:00:19.251Z,52.18
2019-01-06T06:01:19.239Z,52.06
2019-01-06T06:02:19.229Z,52.34
2019-01-06T06:03:19.219Z,52.54
2019-01-06T06:04:19.208Z,52.06
2019-01-06T06:05:19.197Z,52.18
2019-01-06T06:06:19.187Z,52.15
2019-01-06T06:07:19.176Z,52.27
2019-01-06T06:08:19.164Z,52.18
2019-01-06T06:09:19.157Z,52.37
2019-01-06T06:10:19.144Z,52.15
2019-01-06T06:11:19.136Z,52.15
2019-01-06T06:12:19.121Z,52.37
2019-01-06T06:13:19.112Z,52.34
2019-01-06T06:14:19.105Z,52.34
2019-01-06T06:15:19.096Z,52.15
2019-01-06T06:16:19.084Z,51.98
2019-01-06T06:17:19.072Z,52.37
2019-01-06T06:18:19.061Z,52.27
2019-01-06T06:19:19.053Z,52.18
2019-01-06T06:20:19.040Z,52.34
2019-01-06T06:21:19.032Z,52.25
2019-01-06T06:22:19.021Z,52.34
2019-01-06T06:23:19.009Z,52.15
2019-01-06T06:24:19.002Z,52.08
2019-01-06T06:25:18.988Z,51.98
2019-01-06T06:26:18.978Z,51.96
2019-01-06T06:27:18.972Z,52.25
2019-01-06T06:28:18.965Z,52.34
2019-01-06T06:29:18.945Z,52.34
2019-01-06T06:30:18.935Z,52.34
2019-01-06T06:31:18.927Z,52.18
2019-01-06T06:32:18.914Z,52.44
2019-01-06T06:33:18.907Z,52.34
2019-01-06T06:34:18.897Z,52.47
2019-01-06T06:35:18.886Z,52.54
2019-01-06T06:36:18.884Z,52.54
2019-01-06T06:37:18.866Z,52.66
2019-01-06T06:38:18.865Z,52.63
2019-01-06T06:39:18.842Z,52.63
2019-01-06T06:40:18.830Z,52.56
2019-01-06T06:41:18.818Z,52.34
2019-01-06T06:42:18.813Z,52.54
2019-01-06T06:43:18.807Z,52.66
2019-01-06T06:44:18.790Z,52.44
2019-01-06T06:45:18.775Z,52.56
2019-01-06T06:46:18.765Z,52.34
2019-01-06T06:47:18.758Z,52.34
2019-01-06T06:48:18.747Z,52.54
2019-01-06T06:49:18.736Z,52.27
2019-01-06T06:50:18.728Z,52.37
2019-01-06T06:51:18.718Z,52.37
2019-01-06T06:52:18.705Z,52.34
2019-01-06T06:53:18.692Z,52.37
2019-01-06T06:54:18.684Z,52.27
2019-01-06T06:55:18.670Z,52.44
2019-01-06T06:56:18.664Z,52.27
2019-01-06T06:57:18.652Z,52.25
2019-01-06T06:58:18.642Z,52.25
2019-01-06T06:59:18.630Z,52.34
2019-01-06T07:00:18.621Z,52.37
2019-01-06T07:01:18.616Z,51.96
2019-01-06T07:02:18.599Z,52.25
2019-01-06T07:03:18.590Z,51.96
2019-01-06T07:04:18.577Z,52.15
2019-01-06T07:05:18.570Z,52.15
2019-01-06T07:06:18.558Z,51.98
2019-01-06T07:07:18.547Z,51.96
2019-01-06T07:08:18.538Z,52.27
2019-01-06T07:09:18.527Z,52.15
2019-01-06T07:10:18.515Z,52.34
2019-01-06T07:11:18.509Z,52.15
2019-01-06T07:12:18.498Z,51.96
2019-01-06T07:13:18.484Z,52.08
2019-01-06T07:14:18.476Z,51.98
2019-01-06T07:15:18.470Z,52.06
2019-01-06T07:16:18.454Z,52.18
2019-01-06T07:17:18.443Z,52.06
2019-01-06T07:18:18.431Z,51.96
2019-01-06T07:19:18.422Z,52.15
2019-01-06T07:20:18.412Z,52.34
2019-01-06T07:21:18.401Z,52.34
2019-01-06T07:22:18.392Z,52.27
2019-01-06T07:23:18.379Z,52.34
2019-01-06T07:24:18.372Z,52.34
2019-01-06T07:25:18.357Z,52.54
2019-01-06T07:26:18.352Z,52.44
2019-01-06T07:27:18.338Z,52.37
2019-01-06T07:28:18.331Z,52.54
2019-01-06T07:29:18.318Z,52.66
2019-01-06T07:30:18.310Z,52.56
2019-01-06T07:31:18.299Z,52.63
2019-01-06T07:32:18.285Z,52.66
2019-01-06T07:33:18.275Z,52.66
2019-01-06T07:34:18.276Z,52.63
2019-01-06T07:35:18.258Z,52.25
2019-01-06T07:36:18.243Z,52.85
2019-01-06T07:37:18.234Z,52.56
2019-01-06T07:38:18.224Z,52.66
2019-01-06T07:39:18.214Z,52.66
2019-01-06T07:40:18.202Z,52.66
2019-01-06T07:41:18.197Z,52.85
2019-01-06T07:42:18.181Z,52.66
2019-01-06T07:43:18.173Z,52.56
2019-01-06T07:44:18.161Z,52.75
2019-01-06T07:45:18.150Z,52.25
2019-01-06T07:46:18.146Z,52.73
2019-01-06T07:47:18.130Z,52.73
2019-01-06T07:48:18.125Z,52.27
2019-01-06T07:49:18.120Z,52.56
2019-01-06T07:50:18.098Z,52.66
2019-01-06T07:51:18.083Z,52.44
2019-01-06T07:52:18.129Z,52.63
2019-01-06T07:53:18.065Z,52.63
2019-01-06T07:54:18.056Z,52.66
2019-01-06T07:55:18.049Z,52.56
2019-01-06T07:56:18.039Z,52.66
2019-01-06T07:57:18.025Z,52.54
2019-01-06T07:58:18.015Z,52.73
2019-01-06T07:59:18.004Z,52.54
2019-01-06T08:00:17.991Z,52.56
2019-01-06T08:01:17.981Z,52.63
2019-01-06T08:02:17.978Z,52.66
2019-01-06T08:03:17.964Z,52.47
2019-01-06T08:04:17.950Z,52.44
2019-01-06T08:05:17.943Z,52.56
2019-01-06T08:06:17.930Z,52.54
2019-01-06T08:07:17.931Z,52.47
2019-01-06T08:08:17.910Z,52.66
2019-01-06T08:09:17.910Z,52.75
2019-01-06T08:10:17.887Z,52.54
2019-01-06T08:11:17.880Z,52.66
2019-01-06T08:12:17.868Z,52.73
2019-01-06T08:13:17.857Z,52.54
2019-01-06T08:14:17.848Z,52.54
2019-01-06T08:15:17.836Z,52.37
2019-01-06T08:16:17.827Z,52.73
2019-01-06T08:17:17.819Z,52.44
2019-01-06T08:18:17.806Z,52.66
2019-01-06T08:19:17.798Z,52.56
2019-01-06T08:20:17.781Z,52.47
2019-01-06T08:21:17.772Z,52.54
2019-01-06T08:22:17.762Z,52.54
2019-01-06T08:23:17.753Z,52.54
2019-01-06T08:24:17.742Z,52.47
2019-01-06T08:25:17.733Z,52.66
2019-01-06T08:26:17.724Z,52.63
2019-01-06T08:27:17.710Z,52.63
2019-01-06T08:28:17.700Z,52.47
2019-01-06T08:29:17.688Z,52.54
2019-01-06T08:30:17.683Z,52.66
2019-01-06T08:31:17.669Z,52.63
2019-01-06T08:32:17.656Z,52.54
2019-01-06T08:33:17.647Z,52.66
2019-01-06T08:34:17.637Z,52.44
2019-01-06T08:35:17.632Z,52.54
2019-01-06T08:36:17.616Z,52.44
2019-01-06T08:37:17.608Z,52.44
2019-01-06T08:38:17.590Z,52.47
2019-01-06T08:39:17.587Z,52.44
2019-01-06T08:40:17.575Z,52.54
2019-01-06T08:41:17.565Z,52.44
2019-01-06T08:42:17.555Z,52.73
2019-01-06T08:43:17.542Z,52.44
2019-01-06T08:44:17.539Z,52.54
2019-01-06T08:45:17.524Z,52.44
2019-01-06T08:46:17.514Z,52.47
2019-01-06T08:47:17.501Z,52.63
2019-01-06T08:48:17.491Z,52.44
2019-01-06T08:49:17.482Z,52.44
2019-01-06T08:50:17.469Z,52.63
2019-01-06T08:51:17.460Z,52.66
2019-01-06T08:52:17.450Z,52.66
2019-01-06T08:53:17.441Z,52.44
2019-01-06T08:54:17.429Z,52.75
2019-01-06T08:55:17.419Z,52.37
2019-01-06T08:56:17.408Z,52.75
2019-01-06T08:57:17.399Z,52.47
2019-01-06T08:58:17.387Z,52.47
2019-01-06T08:59:17.377Z,52.85
2019-01-06T09:00:17.365Z,52.34
2019-01-06T09:01:17.354Z,52.85
2019-01-06T09:02:17.348Z,52.63
2019-01-06T09:03:17.337Z,52.66
2019-01-06T09:04:17.321Z,52.75
2019-01-06T09:05:17.316Z,52.75
2019-01-06T09:06:17.305Z,52.66
2019-01-06T09:07:17.291Z,52.63
2019-01-06T09:08:17.281Z,52.54
2019-01-06T09:09:17.273Z,52.75
2019-01-06T09:10:17.261Z,52.27
2019-01-06T09:11:17.250Z,52.66
2019-01-06T09:12:17.238Z,52.37
2019-01-06T09:13:17.230Z,52.27
2019-01-06T09:14:17.219Z,52.47
2019-01-06T09:15:17.213Z,52.37
2019-01-06T09:16:17.199Z,52.63
2019-01-06T09:17:17.192Z,52.47
2019-01-06T09:18:17.178Z,52.47
2019-01-06T09:19:17.164Z,52.47
2019-01-06T09:20:17.156Z,52.47
2019-01-06T09:21:17.144Z,52.44
2019-01-06T09:22:17.141Z,52.44
2019-01-06T09:23:17.131Z,52.47
2019-01-06T09:24:17.115Z,52.56
2019-01-06T09:25:17.101Z,52.66
2019-01-06T09:26:17.094Z,52.66
2019-01-06T09:27:17.083Z,52.63
2019-01-06T09:28:17.073Z,52.56
2019-01-06T09:29:17.062Z,52.63
2019-01-06T09:30:17.053Z,52.54
2019-01-06T09:31:17.047Z,52.47
2019-01-06T09:32:17.035Z,52.54
2019-01-06T09:33:17.022Z,52.66
2019-01-06T09:34:17.015Z,52.83
2019-01-06T09:35:17.002Z,52.66
2019-01-06T09:36:16.993Z,52.75
2019-01-06T09:37:16.979Z,52.66
2019-01-06T09:38:16.970Z,52.73
2019-01-06T09:39:16.964Z,52.66
2019-01-06T09:40:16.949Z,52.66
2019-01-06T09:41:16.937Z,52.75
2019-01-06T09:42:16.925Z,52.66
2019-01-06T09:43:16.919Z,52.66
2019-01-06T09:44:16.915Z,52.47
2019-01-06T09:45:16.900Z,52.54
2019-01-06T09:46:17.030Z,52.56
2019-01-06T09:47:16.896Z,52.56
2019-01-06T09:48:16.866Z,52.47
2019-01-06T09:49:16.856Z,52.56
2019-01-06T09:50:16.847Z,52.27
2019-01-06T09:51:16.839Z,52.66
2019-01-06T09:52:16.821Z,52.75
2019-01-06T09:53:16.811Z,52.73
2019-01-06T09:54:16.804Z,52.37
2019-01-06T09:55:16.801Z,52.83
2019-01-06T09:56:16.779Z,52.75
2019-01-06T09:57:16.770Z,52.73
2019-01-06T09:58:16.763Z,53.02
2019-01-06T09:59:16.750Z,53.21
2019-01-06T10:00:16.745Z,53.23
2019-01-06T10:01:16.728Z,53.21
2019-01-06T10:02:16.717Z,53.14
2019-01-06T10:03:16.708Z,52.95
2019-01-06T10:04:16.701Z,53.14
2019-01-06T10:05:16.693Z,53.11
2019-01-06T10:06:16.677Z,53.14
2019-01-06T10:07:16.667Z,53.05
2019-01-06T10:08:16.655Z,53.14
2019-01-06T10:09:16.657Z,53.05
2019-01-06T10:10:16.642Z,52.85
2019-01-06T10:11:16.626Z,52.66
2019-01-06T10:12:16.614Z,52.95
2019-01-06T10:13:16.606Z,53.14
2019-01-06T10:14:16.598Z,52.66
2019-01-06T10:15:16.586Z,52.85
2019-01-06T10:16:16.573Z,52.85
2019-01-06T10:17:16.561Z,52.85
2019-01-06T10:18:16.559Z,52.95
2019-01-06T10:19:16.543Z,53.05
2019-01-06T10:20:16.533Z,53.05
2019-01-06T10:21:16.523Z,52.92
2019-01-06T10:22:16.511Z,52.95
2019-01-06T10:23:16.504Z,53.02
2019-01-06T10:24:16.506Z,52.95
2019-01-06T10:25:16.479Z,52.95
2019-01-06T10:26:16.467Z,52.95
2019-01-06T10:27:16.460Z,52.95
2019-01-06T10:28:16.454Z,52.95
2019-01-06T10:29:16.443Z,52.95
2019-01-06T10:30:16.427Z,52.95
2019-01-06T10:31:16.416Z,52.75
2019-01-06T10:32:16.412Z,52.75
2019-01-06T10:33:16.395Z,52.75
2019-01-06T10:34:16.386Z,52.75
2019-01-06T10:35:16.378Z,52.75
2019-01-06T10:36:16.360Z,52.56
2019-01-06T10:37:16.356Z,52.56
2019-01-06T10:38:16.345Z,52.75
2019-01-06T10:39:16.335Z,52.75
2019-01-06T10:40:16.326Z,52.85
2019-01-06T10:41:16.313Z,52.85
2019-01-06T10:42:16.309Z,52.75
2019-01-06T10:43:16.296Z,52.85
2019-01-06T10:44:16.279Z,52.85
2019-01-06T10:45:16.271Z,52.85
2019-01-06T10:46:16.263Z,52.83
2019-01-06T10:47:16.326Z,52.85
2019-01-06T10:48:16.244Z,52.66
2019-01-06T10:49:16.233Z,52.75
2019-01-06T10:50:16.218Z,52.66
2019-01-06T10:51:16.212Z,52.85
2019-01-06T10:52:16.198Z,52.95
2019-01-06T10:53:16.188Z,52.85
2019-01-06T10:54:16.178Z,53.05
2019-01-06T10:55:16.170Z,53.05
2019-01-06T10:56:16.159Z,52.85
2019-01-06T10:57:16.149Z,52.75
2019-01-06T10:58:16.140Z,52.75
2019-01-06T10:59:16.132Z,52.75
2019-01-06T11:00:16.114Z,53.14
2019-01-06T11:01:16.110Z,53.05
2019-01-06T11:02:16.095Z,53.11
2019-01-06T11:03:16.083Z,53.14
2019-01-06T11:04:16.076Z,53.05
2019-01-06T11:05:16.064Z,52.95
2019-01-06T11:06:16.057Z,53.05
2019-01-06T11:07:16.044Z,53.05
2019-01-06T11:08:17.959Z,53.05
2019-01-06T11:09:16.016Z,52.95
2019-01-06T11:10:16.015Z,52.95
2019-01-06T11:11:16.000Z,52.95
2019-01-06T11:12:15.992Z,53.05
2019-01-06T11:13:15.979Z,52.95
2019-01-06T11:14:15.969Z,53.23
2019-01-06T11:15:15.964Z,53.14
2019-01-06T11:16:15.952Z,53.14
2019-01-06T11:17:15.936Z,53.14
2019-01-06T11:18:15.925Z,53.14
2019-01-06T11:19:15.915Z,53.33
2019-01-06T11:20:15.904Z,53.14
2019-01-06T11:21:15.894Z,53.14
2019-01-06T11:22:15.883Z,53.14
2019-01-06T11:23:15.874Z,53.72
2019-01-06T11:24:15.862Z,53.69
2019-01-06T11:25:15.854Z,53.53
2019-01-06T11:26:15.842Z,53.33
2019-01-06T11:27:15.829Z,53.33
2019-01-06T11:28:15.825Z,53.62
2019-01-06T11:29:15.823Z,53.31
2019-01-06T11:30:15.800Z,53.59
2019-01-06T11:31:15.789Z,53.43
2019-01-06T11:32:15.791Z,53.53
2019-01-06T11:33:15.769Z,53.43
2019-01-06T11:34:15.772Z,53.50
2019-01-06T11:35:15.750Z,53.40
2019-01-06T11:36:15.731Z,53.50
2019-01-06T11:37:15.723Z,53.50
2019-01-06T11:38:15.724Z,53.59
2019-01-06T11:39:15.706Z,53.98
2019-01-06T11:40:15.696Z,53.50
2019-01-06T11:41:15.689Z,53.98
2019-01-06T11:42:15.675Z,53.88
2019-01-06T11:43:15.738Z,53.98
2019-01-06T11:44:15.658Z,53.98
2019-01-06T11:45:15.643Z,53.69
2019-01-06T11:46:15.636Z,53.78
2019-01-06T11:47:15.621Z,53.98
2019-01-06T11:48:15.622Z,53.59
2019-01-06T11:49:15.600Z,53.69
2019-01-06T11:50:15.592Z,53.53
2019-01-06T11:51:15.583Z,53.59
2019-01-06T11:52:15.571Z,53.72
2019-01-06T11:53:15.562Z,53.78
2019-01-06T11:54:15.542Z,53.81
2019-01-06T11:55:15.551Z,53.78
2019-01-06T11:56:15.528Z,53.88
2019-01-06T11:57:15.521Z,53.91
2019-01-06T11:58:15.509Z,53.69
2019-01-06T11:59:15.498Z,53.88
2019-01-06T12:00:15.484Z,54.08
2019-01-06T12:01:15.476Z,54.17
2019-01-06T12:02:15.467Z,53.98
2019-01-06T12:03:15.456Z,54.10
2019-01-06T12:04:15.446Z,54.08
2019-01-06T12:05:15.437Z,54.10
2019-01-06T12:06:15.425Z,53.88
2019-01-06T12:07:15.421Z,54.30
2019-01-06T12:08:15.401Z,54.27
2019-01-06T12:09:15.391Z,54.27
2019-01-06T12:10:15.382Z,54.30
2019-01-06T12:11:15.379Z,54.78
2019-01-06T12:12:15.361Z,54.78
2019-01-06T12:13:15.352Z,54.87
2019-01-06T12:14:15.342Z,54.78
2019-01-06T12:15:15.329Z,54.68
2019-01-06T12:16:15.322Z,54.87
2019-01-06T12:17:15.307Z,54.39
2019-01-06T12:18:15.298Z,54.78
2019-01-06T12:19:15.289Z,54.49
2019-01-06T12:20:15.276Z,54.58
2019-01-06T12:21:15.266Z,54.78
2019-01-06T12:22:15.254Z,54.87
2019-01-06T12:23:15.248Z,54.78
2019-01-06T12:24:15.235Z,54.58
2019-01-06T12:25:15.224Z,54.68
2019-01-06T12:26:15.213Z,54.39
2019-01-06T12:27:15.204Z,54.58
2019-01-06T12:28:15.193Z,54.49
2019-01-06T12:29:15.183Z,54.97
2019-01-06T12:30:15.174Z,54.97
2019-01-06T12:31:15.165Z,54.87
2019-01-06T12:32:15.151Z,54.87
2019-01-06T12:33:15.144Z,55.26
2019-01-06T12:34:15.132Z,54.87
2019-01-06T12:35:15.170Z,55.16
2019-01-06T12:36:15.111Z,55.16
2019-01-06T12:37:15.099Z,55.16
2019-01-06T12:38:15.147Z,54.56
2019-01-06T12:39:15.080Z,54.75
2019-01-06T12:40:15.071Z,55.01
2019-01-06T12:41:15.056Z,55.11
2019-01-06T12:42:15.050Z,54.72
2019-01-06T12:43:15.033Z,54.89
2019-01-06T12:44:15.026Z,54.91
2019-01-06T12:45:15.017Z,55.30
2019-01-06T12:46:15.004Z,55.18
2019-01-06T12:47:14.994Z,54.79
2019-01-06T12:48:14.983Z,54.69
2019-01-06T12:49:14.977Z,54.69
2019-01-06T12:50:14.961Z,54.60
2019-01-06T12:51:14.958Z,54.72
2019-01-06T12:52:14.941Z,54.53